sensor_id;sensor_type;location;lat;lon;timestamp;temperature;humidity
26326;DHT22;14032;52.510;7.342;2023-08-24T00:01:06;17.60;99.90
26326;DHT22;14032;52.510;7.342;2023-08-24T00:03:32;17.60;99.90
26326;DHT22;14032;52.510;7.342;2023-08-24T00:05:58;17.60;99.90
26326;DHT22;14032;52.510;7.342;2023-08-24T00:08:23;17.60;99.90
26326;DHT22;14032;52.510;7.342;2023-08-24T00:10:49;17.60;99.90
26326;DHT22;14032;52.510;7.342;2023-08-24T00:13:15;17.50;99.90
26326;DHT22;14032;52.510;7.342;2023-08-24T00:15:41;17.50;99.90
26326;DHT22;14032;52.510;7.342;2023-08-24T00:18:07;17.50;99.90
26326;DHT22;14032;52.510;7.342;2023-08-24T00:20:33;17.40;99.90
26326;DHT22;14032;52.510;7.342;2023-08-24T00:22:59;17.40;99.90
26326;DHT22;14032;52.510;7.342;2023-08-24T00:25:25;17.40;99.90
26326;DHT22;14032;52.510;7.342;2023-08-24T00:27:53;17.30;99.90
26326;DHT22;14032;52.510;7.342;2023-08-24T00:30:19;17.20;99.90
26326;DHT22;14032;52.510;7.342;2023-08-24T00:32:44;17.20;99.90
26326;DHT22;14032;52.510;7.342;2023-08-24T00:35:10;17.20;99.90
26326;DHT22;14032;52.510;7.342;2023-08-24T00:37:36;17.20;99.90
26326;DHT22;14032;52.510;7.342;2023-08-24T00:40:04;17.20;99.90
26326;DHT22;14032;52.510;7.342;2023-08-24T00:45:05;17.10;99.90
26326;DHT22;14032;52.510;7.342;2023-08-24T00:47:32;17.10;99.90
26326;DHT22;14032;52.510;7.342;2023-08-24T00:49:59;17.10;99.90
26326;DHT22;14032;52.510;7.342;2023-08-24T00:52:26;17.10;99.90
26326;DHT22;14032;52.510;7.342;2023-08-24T00:54:53;17.10;99.90
26326;DHT22;14032;52.510;7.342;2023-08-24T00:57:18;17.10;99.90
26326;DHT22;14032;52.510;7.342;2023-08-24T00:59:44;17.00;99.90
26326;DHT22;14032;52.510;7.342;2023-08-24T01:02:10;17.00;99.90
26326;DHT22;14032;52.510;7.342;2023-08-24T01:04:36;16.90;99.90
26326;DHT22;14032;52.510;7.342;2023-08-24T01:07:02;16.90;99.90
26326;DHT22;14032;52.510;7.342;2023-08-24T01:09:28;16.80;99.90
26326;DHT22;14032;52.510;7.342;2023-08-24T01:14:47;16.80;99.90
26326;DHT22;14032;52.510;7.342;2023-08-24T01:17:20;16.80;99.90
26326;DHT22;14032;52.510;7.342;2023-08-24T01:19:47;16.80;99.90
26326;DHT22;14032;52.510;7.342;2023-08-24T01:22:37;16.70;99.90
26326;DHT22;14032;52.510;7.342;2023-08-24T01:25:37;16.60;99.90
26326;DHT22;14032;52.510;7.342;2023-08-24T01:28:05;16.60;99.90
26326;DHT22;14032;52.510;7.342;2023-08-24T01:30:31;16.50;99.90
26326;DHT22;14032;52.510;7.342;2023-08-24T01:32:57;16.50;99.90
26326;DHT22;14032;52.510;7.342;2023-08-24T01:35:22;16.50;99.90
26326;DHT22;14032;52.510;7.342;2023-08-24T01:37:48;16.60;99.90
26326;DHT22;14032;52.510;7.342;2023-08-24T01:42:53;16.50;99.90
26326;DHT22;14032;52.510;7.342;2023-08-24T01:45:22;16.50;99.90
26326;DHT22;14032;52.510;7.342;2023-08-24T01:47:50;16.50;99.90
26326;DHT22;14032;52.510;7.342;2023-08-24T01:50:17;16.50;99.90
26326;DHT22;14032;52.510;7.342;2023-08-24T01:52:44;16.50;99.90
26326;DHT22;14032;52.510;7.342;2023-08-24T01:55:10;16.50;99.90
26326;DHT22;14032;52.510;7.342;2023-08-24T01:57:37;16.50;99.90
26326;DHT22;14032;52.510;7.342;2023-08-24T02:00:04;16.50;99.90
26326;DHT22;14032;52.510;7.342;2023-08-24T02:02:31;16.50;99.90
26326;DHT22;14032;52.510;7.342;2023-08-24T02:04:58;16.50;99.90
26326;DHT22;14032;52.510;7.342;2023-08-24T02:07:24;16.50;99.90
26326;DHT22;14032;52.510;7.342;2023-08-24T02:09:49;16.50;99.90
26326;DHT22;14032;52.510;7.342;2023-08-24T02:12:15;16.50;99.90
26326;DHT22;14032;52.510;7.342;2023-08-24T02:14:41;16.50;99.90
26326;DHT22;14032;52.510;7.342;2023-08-24T02:17:07;16.50;99.90
26326;DHT22;14032;52.510;7.342;2023-08-24T02:19:34;16.50;99.90
26326;DHT22;14032;52.510;7.342;2023-08-24T02:21:59;16.50;99.90
26326;DHT22;14032;52.510;7.342;2023-08-24T02:24:25;16.50;99.90
26326;DHT22;14032;52.510;7.342;2023-08-24T02:26:51;16.50;99.90
26326;DHT22;14032;52.510;7.342;2023-08-24T02:29:16;16.50;99.90
26326;DHT22;14032;52.510;7.342;2023-08-24T02:31:42;16.60;99.90
26326;DHT22;14032;52.510;7.342;2023-08-24T02:34:07;16.60;99.90
26326;DHT22;14032;52.510;7.342;2023-08-24T02:36:33;16.60;99.90
26326;DHT22;14032;52.510;7.342;2023-08-24T02:39:02;16.60;99.90
26326;DHT22;14032;52.510;7.342;2023-08-24T02:41:28;16.70;99.90
26326;DHT22;14032;52.510;7.342;2023-08-24T02:43:53;16.70;99.90
26326;DHT22;14032;52.510;7.342;2023-08-24T02:46:20;16.60;99.90
26326;DHT22;14032;52.510;7.342;2023-08-24T02:48:46;16.60;99.90
26326;DHT22;14032;52.510;7.342;2023-08-24T02:51:13;16.60;99.90
26326;DHT22;14032;52.510;7.342;2023-08-24T02:53:38;16.60;99.90
26326;DHT22;14032;52.510;7.342;2023-08-24T02:56:04;16.60;99.90
26326;DHT22;14032;52.510;7.342;2023-08-24T02:58:30;16.60;99.90
26326;DHT22;14032;52.510;7.342;2023-08-24T03:00:56;16.60;99.90
26326;DHT22;14032;52.510;7.342;2023-08-24T03:03:23;16.60;99.90
26326;DHT22;14032;52.510;7.342;2023-08-24T03:06:00;16.60;99.90
26326;DHT22;14032;52.510;7.342;2023-08-24T03:08:26;16.60;99.90
26326;DHT22;14032;52.510;7.342;2023-08-24T03:10:52;16.60;99.90
26326;DHT22;14032;52.510;7.342;2023-08-24T03:13:18;16.60;99.90
26326;DHT22;14032;52.510;7.342;2023-08-24T03:15:44;16.70;99.90
26326;DHT22;14032;52.510;7.342;2023-08-24T03:18:12;16.60;99.90
26326;DHT22;14032;52.510;7.342;2023-08-24T03:20:40;16.70;99.90
26326;DHT22;14032;52.510;7.342;2023-08-24T03:23:06;16.60;99.90
26326;DHT22;14032;52.510;7.342;2023-08-24T03:25:36;16.60;99.90
26326;DHT22;14032;52.510;7.342;2023-08-24T03:28:03;16.60;99.90
26326;DHT22;14032;52.510;7.342;2023-08-24T03:30:29;16.60;99.90
26326;DHT22;14032;52.510;7.342;2023-08-24T03:32:54;16.60;99.90
26326;DHT22;14032;52.510;7.342;2023-08-24T03:35:20;16.70;99.90
26326;DHT22;14032;52.510;7.342;2023-08-24T03:37:45;16.60;99.90
26326;DHT22;14032;52.510;7.342;2023-08-24T03:40:12;16.60;99.90
26326;DHT22;14032;52.510;7.342;2023-08-24T03:42:38;16.50;99.90
26326;DHT22;14032;52.510;7.342;2023-08-24T03:45:04;16.50;99.90
26326;DHT22;14032;52.510;7.342;2023-08-24T03:47:30;16.50;99.90
26326;DHT22;14032;52.510;7.342;2023-08-24T03:49:55;16.50;99.90
26326;DHT22;14032;52.510;7.342;2023-08-24T03:52:21;16.50;99.90
26326;DHT22;14032;52.510;7.342;2023-08-24T03:54:46;16.50;99.90
26326;DHT22;14032;52.510;7.342;2023-08-24T03:57:13;16.40;99.90
26326;DHT22;14032;52.510;7.342;2023-08-24T03:59:39;16.40;99.90
26326;DHT22;14032;52.510;7.342;2023-08-24T04:02:05;16.40;99.90
26326;DHT22;14032;52.510;7.342;2023-08-24T04:04:31;16.40;99.90
26326;DHT22;14032;52.510;7.342;2023-08-24T04:06:57;16.40;99.90
26326;DHT22;14032;52.510;7.342;2023-08-24T04:09:22;16.40;99.90
26326;DHT22;14032;52.510;7.342;2023-08-24T04:11:48;16.40;99.90
26326;DHT22;14032;52.510;7.342;2023-08-24T04:14:13;16.40;99.90
26326;DHT22;14032;52.510;7.342;2023-08-24T04:16:39;16.40;99.90
26326;DHT22;14032;52.510;7.342;2023-08-24T04:19:05;16.50;99.90
26326;DHT22;14032;52.510;7.342;2023-08-24T04:21:30;16.40;99.90
26326;DHT22;14032;52.510;7.342;2023-08-24T04:23:56;16.40;99.90
26326;DHT22;14032;52.510;7.342;2023-08-24T04:26:22;16.50;99.90
26326;DHT22;14032;52.510;7.342;2023-08-24T04:28:48;16.40;99.90
26326;DHT22;14032;52.510;7.342;2023-08-24T04:31:15;16.40;99.90
26326;DHT22;14032;52.510;7.342;2023-08-24T04:33:40;16.40;99.90
26326;DHT22;14032;52.510;7.342;2023-08-24T04:36:06;16.40;99.90
26326;DHT22;14032;52.510;7.342;2023-08-24T04:38:32;16.30;99.90
26326;DHT22;14032;52.510;7.342;2023-08-24T04:40:57;16.30;99.90
26326;DHT22;14032;52.510;7.342;2023-08-24T04:43:24;16.30;99.90
26326;DHT22;14032;52.510;7.342;2023-08-24T04:45:51;16.20;99.90
26326;DHT22;14032;52.510;7.342;2023-08-24T04:48:18;16.20;99.90
26326;DHT22;14032;52.510;7.342;2023-08-24T04:50:45;16.20;99.90
26326;DHT22;14032;52.510;7.342;2023-08-24T04:53:15;16.20;99.90
26326;DHT22;14032;52.510;7.342;2023-08-24T04:55:41;16.10;99.90
26326;DHT22;14032;52.510;7.342;2023-08-24T04:58:07;16.10;99.90
26326;DHT22;14032;52.510;7.342;2023-08-24T05:00:34;16.10;99.90
26326;DHT22;14032;52.510;7.342;2023-08-24T05:03:01;16.00;99.90
26326;DHT22;14032;52.510;7.342;2023-08-24T05:05:28;16.00;99.90
26326;DHT22;14032;52.510;7.342;2023-08-24T05:07:53;16.00;99.90
26326;DHT22;14032;52.510;7.342;2023-08-24T05:10:20;16.00;99.90
26326;DHT22;14032;52.510;7.342;2023-08-24T05:12:45;16.00;99.90
26326;DHT22;14032;52.510;7.342;2023-08-24T05:15:11;15.90;99.90
26326;DHT22;14032;52.510;7.342;2023-08-24T05:17:38;16.00;99.90
26326;DHT22;14032;52.510;7.342;2023-08-24T05:20:04;16.00;99.90
26326;DHT22;14032;52.510;7.342;2023-08-24T05:22:30;16.00;99.90
26326;DHT22;14032;52.510;7.342;2023-08-24T05:24:55;16.10;99.90
26326;DHT22;14032;52.510;7.342;2023-08-24T05:27:21;16.10;99.90
26326;DHT22;14032;52.510;7.342;2023-08-24T05:29:46;16.20;99.90
26326;DHT22;14032;52.510;7.342;2023-08-24T05:32:12;16.20;99.90
26326;DHT22;14032;52.510;7.342;2023-08-24T05:34:37;16.20;99.90
26326;DHT22;14032;52.510;7.342;2023-08-24T05:37:03;16.30;99.90
26326;DHT22;14032;52.510;7.342;2023-08-24T05:39:28;16.30;99.90
26326;DHT22;14032;52.510;7.342;2023-08-24T05:41:54;16.30;99.90
26326;DHT22;14032;52.510;7.342;2023-08-24T05:44:21;16.30;99.90
26326;DHT22;14032;52.510;7.342;2023-08-24T05:46:47;16.30;99.90
26326;DHT22;14032;52.510;7.342;2023-08-24T05:49:12;16.40;99.90
26326;DHT22;14032;52.510;7.342;2023-08-24T05:51:38;16.40;99.90
26326;DHT22;14032;52.510;7.342;2023-08-24T05:54:04;16.50;99.90
26326;DHT22;14032;52.510;7.342;2023-08-24T05:56:30;16.50;99.90
26326;DHT22;14032;52.510;7.342;2023-08-24T05:58:57;16.60;99.90
26326;DHT22;14032;52.510;7.342;2023-08-24T06:01:27;16.70;99.90
26326;DHT22;14032;52.510;7.342;2023-08-24T06:03:52;16.90;99.90
26326;DHT22;14032;52.510;7.342;2023-08-24T06:06:18;17.00;99.90
26326;DHT22;14032;52.510;7.342;2023-08-24T06:08:43;17.20;99.90
26326;DHT22;14032;52.510;7.342;2023-08-24T06:11:09;17.30;99.90
26326;DHT22;14032;52.510;7.342;2023-08-24T06:13:35;17.40;99.90
26326;DHT22;14032;52.510;7.342;2023-08-24T06:16:01;17.50;99.90
26326;DHT22;14032;52.510;7.342;2023-08-24T06:18:27;17.50;99.90
26326;DHT22;14032;52.510;7.342;2023-08-24T06:20:53;17.60;99.90
26326;DHT22;14032;52.510;7.342;2023-08-24T06:23:19;17.80;99.90
26326;DHT22;14032;52.510;7.342;2023-08-24T06:25:45;17.90;99.90
26326;DHT22;14032;52.510;7.342;2023-08-24T06:28:11;18.20;99.90
26326;DHT22;14032;52.510;7.342;2023-08-24T06:30:41;18.30;99.90
26326;DHT22;14032;52.510;7.342;2023-08-24T06:33:08;18.50;99.90
26326;DHT22;14032;52.510;7.342;2023-08-24T06:35:36;18.60;99.90
26326;DHT22;14032;52.510;7.342;2023-08-24T06:38:03;18.80;99.90
26326;DHT22;14032;52.510;7.342;2023-08-24T06:40:29;18.90;99.90
26326;DHT22;14032;52.510;7.342;2023-08-24T06:42:56;19.10;99.90
26326;DHT22;14032;52.510;7.342;2023-08-24T06:45:21;19.20;99.90
26326;DHT22;14032;52.510;7.342;2023-08-24T06:47:47;19.40;99.90
26326;DHT22;14032;52.510;7.342;2023-08-24T06:50:13;19.50;99.90
26326;DHT22;14032;52.510;7.342;2023-08-24T06:52:41;19.70;99.90
26326;DHT22;14032;52.510;7.342;2023-08-24T06:55:09;19.70;99.90
26326;DHT22;14032;52.510;7.342;2023-08-24T06:57:35;19.80;99.90
26326;DHT22;14032;52.510;7.342;2023-08-24T07:00:01;19.90;99.90
26326;DHT22;14032;52.510;7.342;2023-08-24T07:02:31;20.00;99.90
26326;DHT22;14032;52.510;7.342;2023-08-24T07:04:57;20.00;99.90
26326;DHT22;14032;52.510;7.342;2023-08-24T07:07:23;20.10;99.90
26326;DHT22;14032;52.510;7.342;2023-08-24T07:09:49;20.10;99.90
26326;DHT22;14032;52.510;7.342;2023-08-24T07:12:14;20.20;99.90
26326;DHT22;14032;52.510;7.342;2023-08-24T07:14:40;20.30;99.90
26326;DHT22;14032;52.510;7.342;2023-08-24T07:17:06;20.40;99.90
26326;DHT22;14032;52.510;7.342;2023-08-24T07:19:31;20.50;99.90
26326;DHT22;14032;52.510;7.342;2023-08-24T07:21:57;20.60;99.90
26326;DHT22;14032;52.510;7.342;2023-08-24T07:24:23;20.80;99.90
26326;DHT22;14032;52.510;7.342;2023-08-24T07:26:54;20.90;99.90
26326;DHT22;14032;52.510;7.342;2023-08-24T07:29:20;21.00;99.90
26326;DHT22;14032;52.510;7.342;2023-08-24T07:31:46;21.10;99.90
26326;DHT22;14032;52.510;7.342;2023-08-24T07:34:12;21.20;99.90
26326;DHT22;14032;52.510;7.342;2023-08-24T07:36:38;21.20;99.90
26326;DHT22;14032;52.510;7.342;2023-08-24T07:39:03;21.20;99.90
26326;DHT22;14032;52.510;7.342;2023-08-24T07:41:30;21.20;99.90
26326;DHT22;14032;52.510;7.342;2023-08-24T07:43:55;21.20;99.90
26326;DHT22;14032;52.510;7.342;2023-08-24T07:46:22;21.20;99.90
26326;DHT22;14032;52.510;7.342;2023-08-24T07:48:47;21.20;99.90
26326;DHT22;14032;52.510;7.342;2023-08-24T07:51:13;21.30;99.90
26326;DHT22;14032;52.510;7.342;2023-08-24T07:53:39;21.40;99.90
26326;DHT22;14032;52.510;7.342;2023-08-24T07:56:04;21.50;99.90
26326;DHT22;14032;52.510;7.342;2023-08-24T07:58:30;21.50;99.90
26326;DHT22;14032;52.510;7.342;2023-08-24T08:00:58;21.60;99.90
26326;DHT22;14032;52.510;7.342;2023-08-24T08:03:24;21.60;99.90
26326;DHT22;14032;52.510;7.342;2023-08-24T08:05:49;21.70;99.90
26326;DHT22;14032;52.510;7.342;2023-08-24T08:08:15;21.70;99.90
26326;DHT22;14032;52.510;7.342;2023-08-24T08:10:41;21.80;99.90
26326;DHT22;14032;52.510;7.342;2023-08-24T08:13:07;21.80;99.90
26326;DHT22;14032;52.510;7.342;2023-08-24T08:15:33;21.80;99.90
26326;DHT22;14032;52.510;7.342;2023-08-24T08:17:59;21.90;99.90
26326;DHT22;14032;52.510;7.342;2023-08-24T08:20:24;21.90;99.90
26326;DHT22;14032;52.510;7.342;2023-08-24T08:22:50;21.90;99.90
26326;DHT22;14032;52.510;7.342;2023-08-24T08:25:16;21.90;99.90
26326;DHT22;14032;52.510;7.342;2023-08-24T08:27:43;22.00;99.90
26326;DHT22;14032;52.510;7.342;2023-08-24T08:30:09;22.10;99.90
26326;DHT22;14032;52.510;7.342;2023-08-24T08:32:35;22.20;99.90
26326;DHT22;14032;52.510;7.342;2023-08-24T08:35:01;22.30;99.90
26326;DHT22;14032;52.510;7.342;2023-08-24T08:37:27;22.40;99.90
26326;DHT22;14032;52.510;7.342;2023-08-24T08:39:53;22.50;99.90
26326;DHT22;14032;52.510;7.342;2023-08-24T08:42:18;22.50;99.90
26326;DHT22;14032;52.510;7.342;2023-08-24T08:44:46;22.70;99.90
26326;DHT22;14032;52.510;7.342;2023-08-24T08:47:12;22.70;99.90
26326;DHT22;14032;52.510;7.342;2023-08-24T08:49:45;22.90;99.90
26326;DHT22;14032;52.510;7.342;2023-08-24T08:52:12;23.00;99.90
26326;DHT22;14032;52.510;7.342;2023-08-24T08:54:38;23.00;99.90
26326;DHT22;14032;52.510;7.342;2023-08-24T08:57:04;23.00;99.90
26326;DHT22;14032;52.510;7.342;2023-08-24T08:59:30;23.10;99.90
26326;DHT22;14032;52.510;7.342;2023-08-24T09:02:01;23.20;99.90
26326;DHT22;14032;52.510;7.342;2023-08-24T09:04:29;23.30;99.90
26326;DHT22;14032;52.510;7.342;2023-08-24T09:06:55;23.50;99.90
26326;DHT22;14032;52.510;7.342;2023-08-24T09:09:27;23.50;99.90
26326;DHT22;14032;52.510;7.342;2023-08-24T09:11:53;23.70;99.90
26326;DHT22;14032;52.510;7.342;2023-08-24T09:14:19;23.80;99.90
26326;DHT22;14032;52.510;7.342;2023-08-24T09:16:44;23.90;99.90
26326;DHT22;14032;52.510;7.342;2023-08-24T09:19:13;24.00;99.90
26326;DHT22;14032;52.510;7.342;2023-08-24T09:21:39;24.00;99.90
26326;DHT22;14032;52.510;7.342;2023-08-24T09:24:07;24.10;99.90
26326;DHT22;14032;52.510;7.342;2023-08-24T09:26:37;24.10;99.90
26326;DHT22;14032;52.510;7.342;2023-08-24T09:29:17;24.20;99.90
26326;DHT22;14032;52.510;7.342;2023-08-24T09:31:43;24.30;99.90
26326;DHT22;14032;52.510;7.342;2023-08-24T09:34:12;24.40;99.90
26326;DHT22;14032;52.510;7.342;2023-08-24T09:36:38;24.60;99.90
26326;DHT22;14032;52.510;7.342;2023-08-24T09:39:04;24.60;99.90
26326;DHT22;14032;52.510;7.342;2023-08-24T09:41:48;24.70;99.90
26326;DHT22;14032;52.510;7.342;2023-08-24T09:44:14;24.80;99.90
26326;DHT22;14032;52.510;7.342;2023-08-24T09:46:40;24.80;99.90
26326;DHT22;14032;52.510;7.342;2023-08-24T09:49:08;24.90;99.90
26326;DHT22;14032;52.510;7.342;2023-08-24T09:51:35;25.00;99.90
26326;DHT22;14032;52.510;7.342;2023-08-24T09:54:09;25.00;99.90
26326;DHT22;14032;52.510;7.342;2023-08-24T09:56:39;25.00;99.90
26326;DHT22;14032;52.510;7.342;2023-08-24T09:59:18;25.00;99.90
26326;DHT22;14032;52.510;7.342;2023-08-24T10:01:45;25.00;99.90
26326;DHT22;14032;52.510;7.342;2023-08-24T10:04:23;25.00;99.90
26326;DHT22;14032;52.510;7.342;2023-08-24T10:06:57;24.90;99.90
26326;DHT22;14032;52.510;7.342;2023-08-24T10:09:47;25.00;99.90
26326;DHT22;14032;52.510;7.342;2023-08-24T10:12:20;25.00;99.90
26326;DHT22;14032;52.510;7.342;2023-08-24T10:17:18;25.00;99.90
26326;DHT22;14032;52.510;7.342;2023-08-24T10:19:45;25.00;99.90
26326;DHT22;14032;52.510;7.342;2023-08-24T10:22:12;25.00;99.90
26326;DHT22;14032;52.510;7.342;2023-08-24T10:24:37;25.00;99.90
26326;DHT22;14032;52.510;7.342;2023-08-24T10:27:05;25.10;99.90
26326;DHT22;14032;52.510;7.342;2023-08-24T10:29:30;25.10;99.90
26326;DHT22;14032;52.510;7.342;2023-08-24T10:31:56;25.10;99.90
26326;DHT22;14032;52.510;7.342;2023-08-24T10:34:23;25.10;99.90
26326;DHT22;14032;52.510;7.342;2023-08-24T10:36:49;25.10;99.90
26326;DHT22;14032;52.510;7.342;2023-08-24T10:39:15;25.10;99.90
26326;DHT22;14032;52.510;7.342;2023-08-24T10:42:09;25.20;99.90
26326;DHT22;14032;52.510;7.342;2023-08-24T10:44:37;25.30;99.90
26326;DHT22;14032;52.510;7.342;2023-08-24T10:47:22;25.30;99.90
26326;DHT22;14032;52.510;7.342;2023-08-24T10:54:53;25.50;99.90
26326;DHT22;14032;52.510;7.342;2023-08-24T10:57:27;25.60;99.90
26326;DHT22;14032;52.510;7.342;2023-08-24T11:02:25;25.80;99.90
26326;DHT22;14032;52.510;7.342;2023-08-24T11:05:10;25.90;99.90
26326;DHT22;14032;52.510;7.342;2023-08-24T11:10:28;26.10;99.90
26326;DHT22;14032;52.510;7.342;2023-08-24T11:13:05;26.00;99.90
26326;DHT22;14032;52.510;7.342;2023-08-24T11:15:32;25.90;99.90
26326;DHT22;14032;52.510;7.342;2023-08-24T11:18:21;25.80;99.90
26326;DHT22;14032;52.510;7.342;2023-08-24T11:20:50;25.80;99.90
26326;DHT22;14032;52.510;7.342;2023-08-24T11:23:16;25.80;99.90
26326;DHT22;14032;52.510;7.342;2023-08-24T11:25:42;25.90;99.90
26326;DHT22;14032;52.510;7.342;2023-08-24T11:28:08;26.00;99.90
26326;DHT22;14032;52.510;7.342;2023-08-24T11:30:34;26.20;99.90
26326;DHT22;14032;52.510;7.342;2023-08-24T11:33:00;26.30;99.90
26326;DHT22;14032;52.510;7.342;2023-08-24T11:35:26;26.40;99.90
26326;DHT22;14032;52.510;7.342;2023-08-24T11:37:53;26.50;99.90
26326;DHT22;14032;52.510;7.342;2023-08-24T11:40:19;26.60;99.90
26326;DHT22;14032;52.510;7.342;2023-08-24T11:42:46;26.60;99.90
26326;DHT22;14032;52.510;7.342;2023-08-24T11:45:12;26.60;99.90
26326;DHT22;14032;52.510;7.342;2023-08-24T11:47:38;26.60;99.90
26326;DHT22;14032;52.510;7.342;2023-08-24T11:50:05;26.60;99.90
26326;DHT22;14032;52.510;7.342;2023-08-24T11:52:31;26.60;99.90
26326;DHT22;14032;52.510;7.342;2023-08-24T11:55:00;26.70;99.90
26326;DHT22;14032;52.510;7.342;2023-08-24T11:57:26;26.70;99.90
26326;DHT22;14032;52.510;7.342;2023-08-24T11:59:54;26.80;99.90
26326;DHT22;14032;52.510;7.342;2023-08-24T12:02:20;26.90;99.90
26326;DHT22;14032;52.510;7.342;2023-08-24T12:04:48;27.00;99.90
26326;DHT22;14032;52.510;7.342;2023-08-24T12:07:15;27.00;99.90
26326;DHT22;14032;52.510;7.342;2023-08-24T12:09:41;27.00;99.90
26326;DHT22;14032;52.510;7.342;2023-08-24T12:12:17;27.10;99.90
26326;DHT22;14032;52.510;7.342;2023-08-24T12:14:47;27.20;99.90
26326;DHT22;14032;52.510;7.342;2023-08-24T12:17:14;27.20;99.90
26326;DHT22;14032;52.510;7.342;2023-08-24T12:19:44;27.10;99.90
26326;DHT22;14032;52.510;7.342;2023-08-24T12:22:16;27.00;99.90
26326;DHT22;14032;52.510;7.342;2023-08-24T12:24:46;27.00;99.90
26326;DHT22;14032;52.510;7.342;2023-08-24T12:27:23;26.90;99.90
26326;DHT22;14032;52.510;7.342;2023-08-24T12:29:49;26.80;99.90
26326;DHT22;14032;52.510;7.342;2023-08-24T12:32:16;26.60;99.90
26326;DHT22;14032;52.510;7.342;2023-08-24T12:34:42;26.50;99.90
26326;DHT22;14032;52.510;7.342;2023-08-24T12:37:10;26.40;99.90
26326;DHT22;14032;52.510;7.342;2023-08-24T12:39:37;26.40;99.90
26326;DHT22;14032;52.510;7.342;2023-08-24T12:42:03;26.40;99.90
26326;DHT22;14032;52.510;7.342;2023-08-24T12:44:29;26.40;99.90
26326;DHT22;14032;52.510;7.342;2023-08-24T12:46:54;26.40;99.90
26326;DHT22;14032;52.510;7.342;2023-08-24T12:49:20;26.40;99.90
26326;DHT22;14032;52.510;7.342;2023-08-24T12:51:45;26.30;99.90
26326;DHT22;14032;52.510;7.342;2023-08-24T12:54:12;26.30;99.90
26326;DHT22;14032;52.510;7.342;2023-08-24T12:56:41;26.20;99.90
26326;DHT22;14032;52.510;7.342;2023-08-24T12:59:07;26.20;99.90
26326;DHT22;14032;52.510;7.342;2023-08-24T13:01:33;26.20;99.90
26326;DHT22;14032;52.510;7.342;2023-08-24T13:03:59;26.20;99.90
26326;DHT22;14032;52.510;7.342;2023-08-24T13:06:24;26.20;99.90
26326;DHT22;14032;52.510;7.342;2023-08-24T13:08:54;26.20;99.90
26326;DHT22;14032;52.510;7.342;2023-08-24T13:11:22;26.30;99.90
26326;DHT22;14032;52.510;7.342;2023-08-24T13:13:48;26.20;99.90
26326;DHT22;14032;52.510;7.342;2023-08-24T13:16:14;26.20;99.90
26326;DHT22;14032;52.510;7.342;2023-08-24T13:18:40;26.30;99.90
26326;DHT22;14032;52.510;7.342;2023-08-24T13:21:05;26.30;99.90
26326;DHT22;14032;52.510;7.342;2023-08-24T13:23:31;26.40;99.90
26326;DHT22;14032;52.510;7.342;2023-08-24T13:25:58;26.30;99.90
26326;DHT22;14032;52.510;7.342;2023-08-24T13:28:23;26.30;99.90
26326;DHT22;14032;52.510;7.342;2023-08-24T13:30:49;26.30;99.90
26326;DHT22;14032;52.510;7.342;2023-08-24T13:33:14;26.20;99.90
26326;DHT22;14032;52.510;7.342;2023-08-24T13:35:40;26.20;99.90
26326;DHT22;14032;52.510;7.342;2023-08-24T13:38:06;26.20;99.90
26326;DHT22;14032;52.510;7.342;2023-08-24T13:40:32;26.20;99.90
26326;DHT22;14032;52.510;7.342;2023-08-24T13:42:57;26.10;99.90
26326;DHT22;14032;52.510;7.342;2023-08-24T13:45:23;26.10;99.90
26326;DHT22;14032;52.510;7.342;2023-08-24T13:47:48;26.00;99.90
26326;DHT22;14032;52.510;7.342;2023-08-24T13:50:14;26.00;99.90
26326;DHT22;14032;52.510;7.342;2023-08-24T13:52:40;26.00;99.90
26326;DHT22;14032;52.510;7.342;2023-08-24T13:55:06;26.00;99.90
26326;DHT22;14032;52.510;7.342;2023-08-24T13:57:31;26.00;99.90
26326;DHT22;14032;52.510;7.342;2023-08-24T13:59:57;25.90;99.90
26326;DHT22;14032;52.510;7.342;2023-08-24T14:02:23;25.90;99.90
26326;DHT22;14032;52.510;7.342;2023-08-24T14:04:48;25.80;99.90
26326;DHT22;14032;52.510;7.342;2023-08-24T14:07:14;25.80;99.90
26326;DHT22;14032;52.510;7.342;2023-08-24T14:09:39;25.70;99.90
26326;DHT22;14032;52.510;7.342;2023-08-24T14:12:05;25.70;99.90
26326;DHT22;14032;52.510;7.342;2023-08-24T14:14:31;25.60;99.90
26326;DHT22;14032;52.510;7.342;2023-08-24T14:16:57;25.60;99.90
26326;DHT22;14032;52.510;7.342;2023-08-24T14:19:23;25.50;99.90
26326;DHT22;14032;52.510;7.342;2023-08-24T14:21:48;25.50;99.90
26326;DHT22;14032;52.510;7.342;2023-08-24T14:24:14;25.40;99.90
26326;DHT22;14032;52.510;7.342;2023-08-24T14:26:40;25.30;99.90
26326;DHT22;14032;52.510;7.342;2023-08-24T14:29:11;25.30;99.90
26326;DHT22;14032;52.510;7.342;2023-08-24T14:31:38;25.20;99.90
26326;DHT22;14032;52.510;7.342;2023-08-24T14:34:03;25.20;99.90
26326;DHT22;14032;52.510;7.342;2023-08-24T14:36:29;25.10;99.90
26326;DHT22;14032;52.510;7.342;2023-08-24T14:38:55;25.00;99.90
26326;DHT22;14032;52.510;7.342;2023-08-24T14:41:21;25.00;99.90
26326;DHT22;14032;52.510;7.342;2023-08-24T14:43:47;24.90;99.90
26326;DHT22;14032;52.510;7.342;2023-08-24T14:46:13;24.90;99.90
26326;DHT22;14032;52.510;7.342;2023-08-24T14:48:38;24.90;99.90
26326;DHT22;14032;52.510;7.342;2023-08-24T14:51:05;24.90;99.90
26326;DHT22;14032;52.510;7.342;2023-08-24T14:53:30;24.90;99.90
26326;DHT22;14032;52.510;7.342;2023-08-24T14:55:57;24.90;99.90
26326;DHT22;14032;52.510;7.342;2023-08-24T14:58:24;24.90;99.90
26326;DHT22;14032;52.510;7.342;2023-08-24T15:00:51;24.90;99.90
26326;DHT22;14032;52.510;7.342;2023-08-24T15:03:17;24.80;99.90
26326;DHT22;14032;52.510;7.342;2023-08-24T15:05:45;24.90;99.90
26326;DHT22;14032;52.510;7.342;2023-08-24T15:08:11;24.90;99.90
26326;DHT22;14032;52.510;7.342;2023-08-24T15:10:37;24.80;99.90
26326;DHT22;14032;52.510;7.342;2023-08-24T15:13:04;24.90;99.90
26326;DHT22;14032;52.510;7.342;2023-08-24T15:15:29;24.90;99.90
26326;DHT22;14032;52.510;7.342;2023-08-24T15:17:55;24.90;99.90
26326;DHT22;14032;52.510;7.342;2023-08-24T15:20:20;24.90;99.90
26326;DHT22;14032;52.510;7.342;2023-08-24T15:22:46;24.90;99.90
26326;DHT22;14032;52.510;7.342;2023-08-24T15:25:12;24.90;99.90
26326;DHT22;14032;52.510;7.342;2023-08-24T15:27:37;24.80;99.90
26326;DHT22;14032;52.510;7.342;2023-08-24T15:30:03;24.80;99.90
26326;DHT22;14032;52.510;7.342;2023-08-24T15:32:32;24.80;99.90
26326;DHT22;14032;52.510;7.342;2023-08-24T15:34:58;24.70;99.90
26326;DHT22;14032;52.510;7.342;2023-08-24T15:37:24;24.70;99.90
26326;DHT22;14032;52.510;7.342;2023-08-24T15:39:50;24.70;99.90
26326;DHT22;14032;52.510;7.342;2023-08-24T15:42:16;24.60;99.90
26326;DHT22;14032;52.510;7.342;2023-08-24T15:44:41;24.60;99.90
26326;DHT22;14032;52.510;7.342;2023-08-24T15:47:07;24.60;99.90
26326;DHT22;14032;52.510;7.342;2023-08-24T15:49:33;24.60;99.90